createdAt,value
2019-05-19T00:01:01.187Z,13.54
2019-05-19T00:03:28.410Z,13.56
2019-05-19T00:05:55.395Z,13.40
2019-05-19T00:08:22.247Z,13.25
2019-05-19T00:10:49.485Z,13.18
2019-05-19T00:13:16.301Z,13.18
2019-05-19T00:15:43.736Z,13.27
2019-05-19T00:18:10.715Z,13.34
2019-05-19T00:20:37.680Z,13.35
2019-05-19T00:23:04.569Z,13.35
2019-05-19T00:25:33.088Z,13.27
2019-05-19T00:27:59.921Z,13.15
2019-05-19T00:30:27.226Z,13.17
2019-05-19T00:32:53.990Z,13.20
2019-05-19T00:35:21.176Z,13.25
2019-05-19T00:37:48.090Z,13.28
2019-05-19T00:40:17.886Z,13.26
2019-05-19T00:42:44.840Z,13.34
2019-05-19T00:45:12.624Z,13.40
2019-05-19T00:47:39.918Z,13.38
2019-05-19T00:50:16.567Z,13.44
2019-05-19T00:52:43.545Z,13.44
2019-05-19T00:55:10.712Z,13.49
2019-05-19T00:57:38.191Z,13.55
2019-05-19T01:00:07.601Z,13.49
2019-05-19T01:02:35.449Z,13.26
2019-05-19T01:05:07.120Z,13.16
2019-05-19T01:07:34.910Z,13.08
2019-05-19T01:10:07.180Z,13.11
2019-05-19T01:12:34.210Z,13.05
2019-05-19T01:15:01.492Z,12.92
2019-05-19T01:17:28.475Z,12.86
2019-05-19T01:19:56.376Z,12.78
2019-05-19T01:22:23.451Z,12.87
2019-05-19T01:24:50.735Z,12.81
2019-05-19T01:27:17.531Z,12.83
2019-05-19T01:29:44.681Z,12.85
2019-05-19T01:32:11.472Z,12.92
2019-05-19T01:34:38.368Z,13.04
2019-05-19T01:37:05.181Z,13.06
2019-05-19T01:39:32.225Z,13.06
2019-05-19T01:41:59.736Z,12.96
2019-05-19T01:44:26.880Z,12.92
2019-05-19T01:46:53.792Z,12.90
2019-05-19T01:49:20.741Z,12.71
2019-05-19T01:51:47.562Z,12.61
2019-05-19T01:54:16.723Z,12.66
2019-05-19T01:56:44.307Z,12.82
2019-05-19T01:59:11.196Z,12.82
2019-05-19T02:01:38.458Z,12.83
2019-05-19T02:04:05.410Z,12.73
2019-05-19T02:06:32.264Z,12.69
2019-05-19T02:08:59.141Z,12.65
2019-05-19T02:11:26.616Z,12.58
2019-05-19T02:13:53.470Z,12.66
2019-05-19T02:16:20.313Z,12.72
2019-05-19T02:18:47.509Z,12.85
2019-05-19T02:21:14.685Z,12.92
2019-05-19T02:23:42.105Z,12.97
2019-05-19T02:26:09.084Z,13.00
2019-05-19T02:28:35.991Z,12.79
2019-05-19T02:31:03.011Z,12.57
2019-05-19T02:33:30.117Z,12.57
2019-05-19T02:35:56.993Z,12.65
2019-05-19T02:38:23.726Z,12.62
2019-05-19T02:40:55.005Z,12.71
2019-05-19T02:43:23.701Z,12.78
2019-05-19T02:45:56.547Z,12.80
2019-05-19T02:48:28.751Z,12.84
2019-05-19T02:51:00.257Z,12.79
2019-05-19T02:53:32.845Z,12.57
2019-05-19T02:56:02.273Z,12.47
2019-05-19T02:58:31.029Z,12.46
2019-05-19T03:00:58.034Z,12.55
2019-05-19T03:03:24.940Z,12.62
2019-05-19T03:05:52.195Z,12.67
2019-05-19T03:08:19.121Z,12.60
2019-05-19T03:10:46.699Z,12.64
2019-05-19T03:13:13.670Z,12.71
2019-05-19T03:15:40.585Z,12.73
2019-05-19T03:18:08.890Z,12.71
2019-05-19T03:20:36.302Z,12.67
2019-05-19T03:23:03.235Z,12.62
2019-05-19T03:25:30.200Z,12.58
2019-05-19T03:27:57.244Z,12.60
2019-05-19T03:30:42.454Z,12.57
2019-05-19T03:33:11.410Z,12.49
2019-05-19T03:35:38.281Z,12.43
2019-05-19T03:38:05.301Z,12.52
2019-05-19T03:40:32.322Z,12.65
2019-05-19T03:42:59.424Z,12.54
2019-05-19T03:45:26.609Z,12.55
2019-05-19T03:47:53.621Z,12.57
2019-05-19T03:50:20.596Z,12.69
2019-05-19T03:52:47.632Z,12.80
2019-05-19T03:55:14.641Z,12.86
2019-05-19T03:57:41.732Z,12.85
2019-05-19T04:00:09.797Z,12.79
2019-05-19T04:02:36.697Z,12.72
2019-05-19T04:05:06.880Z,12.67
2019-05-19T04:07:33.943Z,12.65
2019-05-19T04:10:01.292Z,12.63
2019-05-19T04:12:28.370Z,12.67
2019-05-19T04:14:55.684Z,12.75
2019-05-19T04:17:22.728Z,12.83
2019-05-19T04:19:50.128Z,12.85
2019-05-19T04:22:17.309Z,12.75
2019-05-19T04:24:44.957Z,12.67
2019-05-19T04:27:11.884Z,12.62
2019-05-19T04:29:39.605Z,12.64
2019-05-19T04:32:06.771Z,12.58
2019-05-19T04:34:34.129Z,12.60
2019-05-19T04:37:01.532Z,12.66
2019-05-19T04:39:28.672Z,12.70
2019-05-19T04:41:55.467Z,12.65
2019-05-19T04:44:23.743Z,12.66
2019-05-19T04:46:50.851Z,12.71
2019-05-19T04:49:17.702Z,12.79
2019-05-19T04:51:45.076Z,12.84
2019-05-19T04:54:12.607Z,12.89
2019-05-19T04:56:39.422Z,12.97
2019-05-19T04:59:06.246Z,13.05
2019-05-19T05:01:33.602Z,12.91
2019-05-19T05:04:00.490Z,12.83
2019-05-19T05:06:27.359Z,12.83
2019-05-19T05:08:54.135Z,12.85
2019-05-19T05:11:21.217Z,12.90
2019-05-19T05:13:48.424Z,12.93
2019-05-19T05:16:15.244Z,12.90
2019-05-19T05:18:42.171Z,12.91
2019-05-19T05:21:09.340Z,12.92
2019-05-19T05:23:36.179Z,12.90
2019-05-19T05:26:03.622Z,12.98
2019-05-19T05:28:31.287Z,12.97
2019-05-19T05:30:58.514Z,12.91
2019-05-19T05:33:25.753Z,12.89
2019-05-19T05:35:52.505Z,12.95
2019-05-19T05:38:19.294Z,12.98
2019-05-19T05:40:46.139Z,13.08
2019-05-19T05:43:13.342Z,13.06
2019-05-19T05:45:40.084Z,13.01
2019-05-19T05:48:06.909Z,12.97
2019-05-19T05:50:34.387Z,12.97
2019-05-19T05:53:01.735Z,13.04
2019-05-19T05:55:28.899Z,12.98
2019-05-19T05:57:55.775Z,12.98
2019-05-19T06:00:22.939Z,12.98
2019-05-19T06:02:50.155Z,13.02
2019-05-19T06:05:16.979Z,13.06
2019-05-19T06:07:43.738Z,13.12
2019-05-19T06:10:11.147Z,13.15
2019-05-19T06:12:38.422Z,13.14
2019-05-19T06:15:05.839Z,13.15
2019-05-19T06:17:32.621Z,13.22
2019-05-19T06:19:59.418Z,13.29
2019-05-19T06:22:28.125Z,13.34
2019-05-19T06:24:58.859Z,13.43
2019-05-19T06:27:24.250Z,13.47
2019-05-19T06:29:51.460Z,13.46
2019-05-19T06:32:35.451Z,13.47
2019-05-19T06:35:03.479Z,13.44
2019-05-19T06:37:30.455Z,13.40
2019-05-19T06:39:57.542Z,13.39
2019-05-19T06:42:24.760Z,13.39
2019-05-19T06:44:51.951Z,13.43
2019-05-19T06:47:18.865Z,13.49
2019-05-19T06:49:45.815Z,13.64
2019-05-19T06:52:13.132Z,13.86
2019-05-19T06:54:39.934Z,13.98
2019-05-19T06:57:06.722Z,14.04
2019-05-19T06:59:34.193Z,14.00
2019-05-19T07:02:00.952Z,14.00
2019-05-19T07:04:30.027Z,14.06
2019-05-19T07:06:56.905Z,14.11
2019-05-19T07:09:23.738Z,14.23
2019-05-19T07:11:50.873Z,14.29
2019-05-19T07:14:17.714Z,14.38
2019-05-19T07:16:44.642Z,14.46
2019-05-19T07:19:14.873Z,14.48
2019-05-19T07:21:41.693Z,14.46
2019-05-19T07:24:08.651Z,14.50
2019-05-19T07:26:35.552Z,14.55
2019-05-19T07:29:02.539Z,14.58
2019-05-19T07:31:32.056Z,14.58
2019-05-19T07:33:58.885Z,14.55
2019-05-19T07:36:25.739Z,14.50
2019-05-19T07:38:52.657Z,14.59
2019-05-19T07:41:19.531Z,14.70
2019-05-19T07:43:46.543Z,14.80
2019-05-19T07:46:13.628Z,14.89
2019-05-19T07:48:40.865Z,14.95
2019-05-19T07:51:07.933Z,14.99
2019-05-19T07:53:42.550Z,15.03
2019-05-19T07:56:04.317Z,15.11
2019-05-19T07:58:31.218Z,15.21
2019-05-19T08:00:58.047Z,15.28
2019-05-19T08:03:24.985Z,15.43
2019-05-19T08:05:56.970Z,15.54
2019-05-19T08:08:23.297Z,15.62
2019-05-19T08:10:50.135Z,15.65
2019-05-19T08:13:16.962Z,15.64
2019-05-19T08:15:43.789Z,15.68
2019-05-19T08:18:12.509Z,15.75
2019-05-19T08:20:39.360Z,15.82
2019-05-19T08:23:06.269Z,15.84
2019-05-19T08:25:33.945Z,15.91
2019-05-19T08:28:08.655Z,15.98
2019-05-19T08:30:29.793Z,16.04
2019-05-19T08:32:56.666Z,16.15
2019-05-19T08:35:23.534Z,16.27
2019-05-19T08:37:50.599Z,16.27
2019-05-19T08:40:17.547Z,16.22
2019-05-19T08:42:44.478Z,16.25
2019-05-19T08:45:11.742Z,16.21
2019-05-19T08:47:38.515Z,16.17
2019-05-19T08:50:06.742Z,16.15
2019-05-19T08:52:33.583Z,16.08
2019-05-19T08:55:00.446Z,16.03
2019-05-19T08:57:27.249Z,16.13
2019-05-19T08:59:56.221Z,16.18
2019-05-19T09:02:23.144Z,16.19
2019-05-19T09:04:49.932Z,16.25
2019-05-19T09:07:17.214Z,16.31
2019-05-19T09:09:44.129Z,16.47
2019-05-19T09:12:11.288Z,16.51
2019-05-19T09:14:38.091Z,16.71
2019-05-19T09:17:05.128Z,16.75
2019-05-19T09:19:32.113Z,16.67
2019-05-19T09:22:01.720Z,16.65
2019-05-19T09:24:30.845Z,16.66
2019-05-19T09:26:57.519Z,16.71
2019-05-19T09:29:24.332Z,16.89
2019-05-19T09:31:51.315Z,17.02
2019-05-19T09:34:18.401Z,17.06
2019-05-19T09:36:45.585Z,17.11
2019-05-19T09:39:12.380Z,17.07
2019-05-19T09:41:39.219Z,17.12
2019-05-19T09:44:06.325Z,17.22
2019-05-19T09:46:33.154Z,17.16
2019-05-19T09:49:18.859Z,17.19
2019-05-19T09:51:47.754Z,17.12
2019-05-19T09:54:14.570Z,17.02
2019-05-19T09:56:41.373Z,17.05
2019-05-19T09:59:08.268Z,17.06
2019-05-19T10:01:35.100Z,17.02
2019-05-19T10:04:01.854Z,17.06
2019-05-19T10:06:29.643Z,17.21
2019-05-19T10:09:01.879Z,17.35
2019-05-19T10:11:59.345Z,17.65
2019-05-19T10:14:28.808Z,17.78
2019-05-19T10:16:55.808Z,17.77
2019-05-19T10:19:24.286Z,17.77
2019-05-19T10:21:51.282Z,17.69
2019-05-19T10:24:18.271Z,17.64
2019-05-19T10:26:45.410Z,17.72
2019-05-19T10:29:13.202Z,17.83
2019-05-19T10:31:40.188Z,17.92
2019-05-19T10:34:07.061Z,18.07
2019-05-19T10:36:34.346Z,18.39
2019-05-19T10:39:01.154Z,18.63
2019-05-19T10:41:28.187Z,18.42
2019-05-19T10:43:57.021Z,18.36
2019-05-19T10:46:24.612Z,18.39
2019-05-19T10:48:51.955Z,18.49
2019-05-19T10:51:18.975Z,18.43
2019-05-19T10:53:45.803Z,18.37
2019-05-19T10:56:12.885Z,18.44
2019-05-19T10:58:41.005Z,18.33
2019-05-19T11:01:08.432Z,18.39
2019-05-19T11:03:35.324Z,18.59
2019-05-19T11:06:02.344Z,18.91
2019-05-19T11:08:29.475Z,19.22
2019-05-19T11:10:59.218Z,19.21
2019-05-19T11:13:26.483Z,19.18
2019-05-19T11:15:53.262Z,19.12
2019-05-19T11:18:20.467Z,19.04
2019-05-19T11:20:47.568Z,19.08
2019-05-19T11:23:14.411Z,19.05
2019-05-19T11:25:51.110Z,18.96
2019-05-19T11:28:10.067Z,18.93
2019-05-19T11:30:38.126Z,19.00
2019-05-19T11:33:07.307Z,19.20
2019-05-19T11:35:34.242Z,19.28
2019-05-19T11:38:01.564Z,19.43
2019-05-19T11:40:28.311Z,19.43
2019-05-19T11:42:55.249Z,19.57
2019-05-19T11:45:22.231Z,20.01
2019-05-19T11:47:49.088Z,20.25
2019-05-19T11:50:17.501Z,20.24
2019-05-19T11:52:44.332Z,20.18
2019-05-19T11:55:14.311Z,20.27
2019-05-19T11:57:41.128Z,20.58
2019-05-19T12:00:11.891Z,20.99
2019-05-19T12:02:39.194Z,21.26
2019-05-19T12:05:08.160Z,21.48
2019-05-19T12:07:35.001Z,21.35
2019-05-19T12:10:03.974Z,21.27
2019-05-19T12:12:30.926Z,21.21
2019-05-19T12:14:57.987Z,20.63
2019-05-19T12:17:24.838Z,20.29
2019-05-19T12:19:51.775Z,20.24
2019-05-19T12:22:18.799Z,20.53
2019-05-19T12:24:45.717Z,20.49
2019-05-19T12:27:12.507Z,20.22
2019-05-19T12:29:39.282Z,20.13
2019-05-19T12:32:06.545Z,20.67
2019-05-19T12:34:34.023Z,20.61
2019-05-19T12:37:00.900Z,20.47
2019-05-19T12:39:28.337Z,20.38
2019-05-19T12:41:55.516Z,20.19
2019-05-19T12:44:22.287Z,19.99
2019-05-19T12:46:49.780Z,19.83
2019-05-19T12:49:16.593Z,19.76
2019-05-19T12:51:43.385Z,19.69
2019-05-19T12:54:10.209Z,19.69
2019-05-19T12:56:40.127Z,20.20
2019-05-19T12:59:05.953Z,21.05
2019-05-19T13:01:32.927Z,21.22
2019-05-19T13:04:00.242Z,20.75
2019-05-19T13:06:27.219Z,20.35
2019-05-19T13:08:54.291Z,20.16
2019-05-19T13:11:21.175Z,20.77
2019-05-19T13:13:47.943Z,21.40
2019-05-19T13:16:14.842Z,21.73
2019-05-19T13:18:41.589Z,21.73
2019-05-19T13:21:08.445Z,21.37
2019-05-19T13:23:35.188Z,21.00
2019-05-19T13:26:02.280Z,20.73
2019-05-19T13:28:29.020Z,21.08
2019-05-19T13:30:55.994Z,21.55
2019-05-19T13:33:22.825Z,21.58
2019-05-19T13:35:49.706Z,21.39
2019-05-19T13:38:16.471Z,21.08
2019-05-19T13:40:43.386Z,21.11
2019-05-19T13:43:10.145Z,21.31
2019-05-19T13:45:36.922Z,21.94
2019-05-19T13:48:03.820Z,22.34
2019-05-19T13:50:30.809Z,22.35
2019-05-19T13:52:57.638Z,22.56
2019-05-19T13:55:24.484Z,22.77
2019-05-19T13:57:51.487Z,22.71
2019-05-19T14:00:18.549Z,22.73
2019-05-19T14:02:45.355Z,22.56
2019-05-19T14:05:12.401Z,22.66
2019-05-19T14:07:39.282Z,22.63
2019-05-19T14:10:07.480Z,23.02
2019-05-19T14:12:34.254Z,23.42
2019-05-19T14:15:04.140Z,23.29
2019-05-19T14:17:32.906Z,23.02
2019-05-19T14:19:59.911Z,22.89
2019-05-19T14:22:28.110Z,22.96
2019-05-19T14:24:55.299Z,22.72
2019-05-19T14:27:30.427Z,22.87
2019-05-19T14:29:51.312Z,23.02
2019-05-19T14:32:20.131Z,22.97
2019-05-19T14:34:47.754Z,22.75
2019-05-19T14:37:14.631Z,22.69
2019-05-19T14:39:41.639Z,22.37
2019-05-19T14:42:11.164Z,22.26
2019-05-19T14:44:38.313Z,22.43
2019-05-19T14:47:05.240Z,22.70
2019-05-19T14:49:32.426Z,22.46
2019-05-19T14:51:59.335Z,22.18
2019-05-19T14:54:26.102Z,21.89
2019-05-19T14:56:52.946Z,21.83
2019-05-19T14:59:19.895Z,21.77
2019-05-19T15:01:46.945Z,21.76
2019-05-19T15:04:13.812Z,21.64
2019-05-19T15:06:40.715Z,21.44
2019-05-19T15:09:07.871Z,21.38
2019-05-19T15:11:35.174Z,21.36
2019-05-19T15:14:02.331Z,21.28
2019-05-19T15:16:29.720Z,21.21
2019-05-19T15:18:56.835Z,21.15
2019-05-19T15:21:23.789Z,20.93
2019-05-19T15:23:50.679Z,20.88
2019-05-19T15:26:17.703Z,20.84
2019-05-19T15:28:46.088Z,20.77
2019-05-19T15:31:13.837Z,20.62
2019-05-19T15:33:40.787Z,20.49
2019-05-19T15:36:07.918Z,20.43
2019-05-19T15:38:36.916Z,20.41
2019-05-19T15:41:04.382Z,20.41
2019-05-19T15:43:31.344Z,20.42
2019-05-19T15:46:00.915Z,20.41
2019-05-19T15:48:27.648Z,20.37
2019-05-19T15:50:54.799Z,20.36
2019-05-19T15:53:24.138Z,20.33
2019-05-19T15:55:51.201Z,20.27
2019-05-19T15:58:18.499Z,20.33
2019-05-19T16:00:45.251Z,20.34
2019-05-19T16:03:12.254Z,20.36
2019-05-19T16:05:39.003Z,20.36
2019-05-19T16:08:05.922Z,20.33
2019-05-19T16:10:32.719Z,20.28
2019-05-19T16:12:59.749Z,20.23
2019-05-19T16:15:26.477Z,20.18
2019-05-19T16:17:54.798Z,20.15
2019-05-19T16:20:21.670Z,20.17
2019-05-19T16:22:48.470Z,20.15
2019-05-19T16:25:15.514Z,20.13
2019-05-19T16:27:42.495Z,20.11
2019-05-19T16:30:14.253Z,20.09
2019-05-19T16:32:41.625Z,19.99
2019-05-19T16:35:10.053Z,19.95
2019-05-19T16:37:37.511Z,19.93
2019-05-19T16:40:05.592Z,19.90
2019-05-19T16:42:32.514Z,19.86
2019-05-19T16:44:59.315Z,19.83
2019-05-19T16:47:26.202Z,19.80
2019-05-19T16:49:54.515Z,19.80
2019-05-19T16:52:21.571Z,19.77
2019-05-19T16:55:07.032Z,19.76
2019-05-19T16:57:34.191Z,19.75
2019-05-19T17:00:01.374Z,19.76
2019-05-19T17:02:28.520Z,19.77
2019-05-19T17:04:55.665Z,19.80
2019-05-19T17:07:22.449Z,19.83
2019-05-19T17:09:49.310Z,19.82
2019-05-19T17:12:16.367Z,19.83
2019-05-19T17:14:43.200Z,19.85
2019-05-19T17:17:10.405Z,19.79
2019-05-19T17:19:37.187Z,19.83
2019-05-19T17:22:04.151Z,19.87
2019-05-19T17:24:31.091Z,19.80
2019-05-19T17:26:57.975Z,19.80
2019-05-19T17:29:24.975Z,19.83
2019-05-19T17:32:05.313Z,19.73
2019-05-19T17:34:22.204Z,19.69
2019-05-19T17:36:49.010Z,19.66
2019-05-19T17:39:16.244Z,19.60
2019-05-19T17:41:43.346Z,19.58
2019-05-19T17:44:10.183Z,19.56
2019-05-19T17:46:37.206Z,19.56
2019-05-19T17:49:04.113Z,19.47
2019-05-19T17:51:31.187Z,19.48
2019-05-19T17:53:58.999Z,19.53
2019-05-19T17:56:27.634Z,19.46
2019-05-19T17:58:55.406Z,19.42
2019-05-19T18:01:22.262Z,19.36
2019-05-19T18:03:50.419Z,19.31
2019-05-19T18:06:19.251Z,19.34
2019-05-19T18:08:56.970Z,19.34
2019-05-19T18:11:24.097Z,19.34
2019-05-19T18:13:51.238Z,19.35
2019-05-19T18:16:18.257Z,19.32
2019-05-19T18:18:45.441Z,19.28
2019-05-19T18:21:12.240Z,19.29
2019-05-19T18:23:39.046Z,19.27
2019-05-19T18:26:07.394Z,19.26
2019-05-19T18:28:34.341Z,19.23
2019-05-19T18:31:01.246Z,19.18
2019-05-19T18:33:28.014Z,19.15
2019-05-19T18:35:54.910Z,19.11
2019-05-19T18:38:21.713Z,19.11
2019-05-19T18:40:48.683Z,19.07
2019-05-19T18:43:15.849Z,19.00
2019-05-19T18:45:42.768Z,18.98
2019-05-19T18:48:09.893Z,19.01
2019-05-19T18:50:37.220Z,19.00
2019-05-19T18:53:04.730Z,18.92
2019-05-19T18:55:31.879Z,18.87
2019-05-19T18:57:58.683Z,18.82
2019-05-19T19:00:35.272Z,18.79
2019-05-19T19:03:03.858Z,18.75
2019-05-19T19:05:31.345Z,18.73
2019-05-19T19:07:58.339Z,18.72
2019-05-19T19:10:25.573Z,18.66
2019-05-19T19:12:52.441Z,18.61
2019-05-19T19:15:24.550Z,18.59
2019-05-19T19:17:51.800Z,18.56
2019-05-19T19:20:18.987Z,18.53
2019-05-19T19:22:46.043Z,18.45
2019-05-19T19:25:13.323Z,18.34
2019-05-19T19:27:40.271Z,18.34
2019-05-19T19:30:08.179Z,18.30
2019-05-19T19:32:35.088Z,18.29
2019-05-19T19:35:06.258Z,18.25
2019-05-19T19:37:33.302Z,18.23
2019-05-19T19:40:04.711Z,18.25
2019-05-19T19:42:33.986Z,18.22
2019-05-19T19:45:02.335Z,18.19
2019-05-19T19:47:29.870Z,18.14
2019-05-19T19:49:57.159Z,18.14
2019-05-19T19:52:24.064Z,18.10
2019-05-19T19:54:51.659Z,18.07
2019-05-19T19:57:18.536Z,18.03
2019-05-19T19:59:47.368Z,18.00
2019-05-19T20:02:14.340Z,17.96
2019-05-19T20:04:41.347Z,17.92
2019-05-19T20:07:08.451Z,17.88
2019-05-19T20:09:35.725Z,17.88
2019-05-19T20:12:02.929Z,17.89
2019-05-19T20:14:30.535Z,17.92
2019-05-19T20:16:57.491Z,17.91
2019-05-19T20:19:24.431Z,17.83
2019-05-19T20:21:51.497Z,17.84
2019-05-19T20:24:18.387Z,17.82
2019-05-19T20:26:48.493Z,17.81
2019-05-19T20:29:15.681Z,17.81
2019-05-19T20:31:42.667Z,17.80
2019-05-19T20:34:09.950Z,17.79
2019-05-19T20:36:37.013Z,17.77
2019-05-19T20:39:05.231Z,17.75
2019-05-19T20:41:32.079Z,17.75
2019-05-19T20:43:58.883Z,17.73
2019-05-19T20:46:26.189Z,17.74
2019-05-19T20:48:53.109Z,17.71
2019-05-19T20:51:20.660Z,17.72
2019-05-19T20:53:49.050Z,17.69
2019-05-19T20:56:15.966Z,17.65
2019-05-19T20:58:42.832Z,17.62
2019-05-19T21:01:09.858Z,17.60
2019-05-19T21:03:36.681Z,17.62
2019-05-19T21:06:04.035Z,17.63
2019-05-19T21:08:34.149Z,17.60
2019-05-19T21:11:03.121Z,17.55
2019-05-19T21:13:29.957Z,17.52
2019-05-19T21:15:57.346Z,17.51
2019-05-19T21:18:24.594Z,17.48
2019-05-19T21:20:51.602Z,17.48
2019-05-19T21:23:18.685Z,17.46
2019-05-19T21:25:46.648Z,17.47
2019-05-19T21:28:13.927Z,17.49
2019-05-19T21:30:41.197Z,17.44
2019-05-19T21:33:08.154Z,17.42
2019-05-19T21:35:35.905Z,17.42
2019-05-19T21:38:03.242Z,17.42
2019-05-19T21:40:30.206Z,17.42
2019-05-19T21:42:56.960Z,17.39
2019-05-19T21:45:23.757Z,17.41
2019-05-19T21:47:50.698Z,17.38
2019-05-19T21:50:17.858Z,17.34
2019-05-19T21:52:44.773Z,17.29
2019-05-19T21:55:11.892Z,17.29
2019-05-19T21:57:38.649Z,17.26
2019-05-19T22:00:10.645Z,17.22
2019-05-19T22:02:38.940Z,17.20
2019-05-19T22:05:06.513Z,17.17
2019-05-19T22:07:52.620Z,17.11
2019-05-19T22:10:19.441Z,17.08
2019-05-19T22:12:46.224Z,17.09
2019-05-19T22:15:14.011Z,17.09
2019-05-19T22:17:42.926Z,17.13
2019-05-19T22:20:09.928Z,17.12
2019-05-19T22:22:36.793Z,17.02
2019-05-19T22:25:06.200Z,17.01
2019-05-19T22:27:33.181Z,17.00
2019-05-19T22:30:00.119Z,16.99
2019-05-19T22:32:27.067Z,17.01
2019-05-19T22:34:54.321Z,17.01
2019-05-19T22:37:21.479Z,16.92
2019-05-19T22:39:48.299Z,16.91
2019-05-19T22:42:15.502Z,16.85
2019-05-19T22:44:42.420Z,16.80
2019-05-19T22:47:09.355Z,16.81
2019-05-19T22:49:36.710Z,16.76
2019-05-19T22:52:03.588Z,16.73
2019-05-19T22:54:30.355Z,16.71
2019-05-19T22:56:57.689Z,16.62
2019-05-19T22:59:24.483Z,16.60
2019-05-19T23:01:52.262Z,16.61
2019-05-19T23:04:22.347Z,16.57
2019-05-19T23:06:49.781Z,16.43
2019-05-19T23:09:16.673Z,16.29
2019-05-19T23:11:43.579Z,16.10
2019-05-19T23:14:10.841Z,16.00
2019-05-19T23:16:37.775Z,15.83
2019-05-19T23:19:04.621Z,15.81
2019-05-19T23:21:34.409Z,15.79
2019-05-19T23:24:00.430Z,15.61
2019-05-19T23:26:27.209Z,15.66
2019-05-19T23:28:54.036Z,15.60
2019-05-19T23:31:21.014Z,15.58
2019-05-19T23:33:47.830Z,15.58
2019-05-19T23:36:14.838Z,15.50
2019-05-19T23:38:47.165Z,15.24
2019-05-19T23:41:14.420Z,15.19
2019-05-19T23:43:41.312Z,15.26
2019-05-19T23:46:08.211Z,15.30
2019-05-19T23:48:35.267Z,15.33
2019-05-19T23:51:02.280Z,15.31
2019-05-19T23:53:29.146Z,15.32
2019-05-19T23:55:56.132Z,15.26
2019-05-19T23:58:23.176Z,15.19
